createdAt,value
2019-05-13T00:01:34.743Z,8.80
2019-05-13T00:04:03.919Z,8.80
2019-05-13T00:06:34.348Z,8.80
2019-05-13T00:09:06.250Z,8.80
2019-05-13T00:11:35.836Z,8.70
2019-05-13T00:14:05.731Z,8.70
2019-05-13T00:16:35.277Z,8.60
2019-05-13T00:19:04.576Z,8.60
2019-05-13T00:21:34.172Z,8.50
2019-05-13T00:24:04.232Z,8.50
2019-05-13T00:26:34.046Z,8.50
2019-05-13T00:29:04.208Z,8.40
2019-05-13T00:31:33.645Z,8.40
2019-05-13T00:34:03.702Z,8.40
2019-05-13T00:36:33.692Z,8.30
2019-05-13T00:39:04.893Z,8.30
2019-05-13T00:41:34.057Z,8.20
2019-05-13T00:44:03.887Z,8.20
2019-05-13T00:46:34.025Z,8.10
2019-05-13T00:49:04.745Z,8.10
2019-05-13T00:51:34.108Z,8.10
2019-05-13T00:54:04.393Z,8.10
2019-05-13T00:56:34.534Z,8.10
2019-05-13T00:59:03.934Z,8.10
2019-05-13T01:01:33.588Z,8.00
2019-05-13T01:04:03.973Z,7.90
2019-05-13T01:06:34.112Z,7.90
2019-05-13T01:09:05.482Z,8.00
2019-05-13T01:11:34.739Z,7.90
2019-05-13T01:14:04.497Z,8.00
2019-05-13T01:16:34.158Z,7.90
2019-05-13T01:19:04.229Z,7.90
2019-05-13T01:21:34.485Z,7.80
2019-05-13T01:24:04.130Z,7.80
2019-05-13T01:26:33.872Z,7.80
2019-05-13T01:29:04.276Z,7.80
2019-05-13T01:31:34.364Z,7.80
2019-05-13T01:34:04.199Z,7.80
2019-05-13T01:36:34.173Z,7.80
2019-05-13T01:39:06.077Z,7.80
2019-05-13T01:41:35.358Z,7.80
2019-05-13T01:44:04.692Z,7.80
2019-05-13T01:46:34.777Z,7.80
2019-05-13T01:49:04.934Z,7.80
2019-05-13T01:51:34.492Z,7.80
2019-05-13T01:54:04.141Z,7.80
2019-05-13T01:56:34.106Z,7.70
2019-05-13T01:59:03.867Z,7.70
2019-05-13T02:01:33.893Z,7.70
2019-05-13T02:04:04.091Z,7.70
2019-05-13T02:06:33.852Z,7.70
2019-05-13T02:09:05.208Z,7.70
2019-05-13T02:11:34.850Z,7.70
2019-05-13T02:14:05.663Z,7.70
2019-05-13T02:16:35.360Z,7.70
2019-05-13T02:19:04.887Z,7.70
2019-05-13T02:21:34.105Z,7.70
2019-05-13T02:24:04.271Z,7.70
2019-05-13T02:26:34.530Z,7.70
2019-05-13T02:29:04.056Z,7.70
2019-05-13T02:31:46.165Z,7.70
2019-05-13T02:34:04.625Z,7.70
2019-05-13T02:36:33.898Z,7.60
2019-05-13T02:39:05.413Z,7.60
2019-05-13T02:41:35.038Z,7.60
2019-05-13T02:44:04.803Z,7.60
2019-05-13T02:46:34.420Z,7.60
2019-05-13T02:49:04.266Z,7.60
2019-05-13T02:51:33.526Z,7.60
2019-05-13T02:54:03.759Z,7.60
2019-05-13T02:56:33.335Z,7.60
2019-05-13T02:59:03.945Z,7.60
2019-05-13T03:01:33.554Z,7.60
2019-05-13T03:04:03.606Z,7.60
2019-05-13T03:06:33.369Z,7.60
2019-05-13T03:09:04.438Z,7.60
2019-05-13T03:11:33.963Z,7.50
2019-05-13T03:14:03.893Z,7.50
2019-05-13T03:16:58.387Z,7.40
2019-05-13T03:19:27.963Z,7.40
2019-05-13T03:21:57.244Z,7.40
2019-05-13T03:24:26.379Z,7.40
2019-05-13T03:26:55.578Z,7.40
2019-05-13T03:29:24.812Z,7.40
2019-05-13T03:31:55.726Z,7.40
2019-05-13T03:34:27.110Z,7.40
2019-05-13T03:36:57.842Z,7.30
2019-05-13T03:39:29.000Z,7.20
2019-05-13T03:42:02.944Z,7.20
2019-05-13T03:44:32.866Z,7.10
2019-05-13T03:47:04.075Z,7.10
2019-05-13T03:49:36.263Z,7.10
2019-05-13T03:52:05.491Z,7.00
2019-05-13T03:54:35.224Z,7.00
2019-05-13T03:57:05.408Z,7.00
2019-05-13T03:59:35.017Z,6.90
2019-05-13T04:02:04.338Z,6.90
2019-05-13T04:04:33.549Z,6.90
2019-05-13T04:07:03.246Z,6.90
2019-05-13T04:09:36.261Z,6.90
2019-05-13T04:12:04.340Z,6.90
2019-05-13T04:14:35.794Z,6.90
2019-05-13T04:17:05.436Z,6.90
2019-05-13T04:19:35.262Z,6.90
2019-05-13T04:22:04.515Z,7.00
2019-05-13T04:24:35.705Z,7.00
2019-05-13T04:27:05.292Z,7.10
2019-05-13T04:29:35.620Z,7.20
2019-05-13T04:32:05.017Z,7.20
2019-05-13T04:34:34.307Z,7.30
2019-05-13T04:37:03.681Z,7.40
2019-05-13T04:39:45.938Z,7.40
2019-05-13T04:42:04.530Z,7.50
2019-05-13T04:44:33.908Z,7.60
2019-05-13T04:47:04.244Z,7.60
2019-05-13T04:49:33.588Z,7.70
2019-05-13T04:52:03.691Z,7.80
2019-05-13T04:54:33.896Z,7.90
2019-05-13T04:57:03.579Z,7.90
2019-05-13T04:59:35.840Z,8.00
2019-05-13T05:02:41.969Z,8.10
2019-05-13T05:05:15.136Z,8.20
2019-05-13T05:08:15.849Z,8.30
2019-05-13T05:11:32.487Z,8.40
2019-05-13T05:14:34.049Z,8.60
2019-05-13T05:17:35.799Z,8.80
2019-05-13T05:20:17.716Z,8.90
2019-05-13T05:23:11.273Z,9.00
2019-05-13T05:26:01.230Z,9.10
2019-05-13T05:28:57.444Z,9.20
2019-05-13T05:31:47.180Z,9.30
2019-05-13T05:35:12.535Z,9.40
2019-05-13T05:38:12.141Z,9.50
2019-05-13T05:40:44.609Z,9.60
2019-05-13T05:43:14.660Z,9.80
2019-05-13T05:45:43.986Z,9.90
2019-05-13T05:48:16.992Z,10.00
2019-05-13T05:50:48.241Z,10.10
2019-05-13T05:53:21.845Z,10.20
2019-05-13T05:55:52.654Z,10.30
2019-05-13T05:58:23.427Z,10.30
2019-05-13T06:00:56.034Z,10.40
2019-05-13T06:03:27.922Z,10.50
2019-05-13T06:05:57.495Z,10.70
2019-05-13T06:08:26.891Z,10.90
2019-05-13T06:10:56.227Z,11.10
2019-05-13T06:13:25.386Z,11.10
2019-05-13T06:15:54.929Z,11.10
2019-05-13T06:18:24.091Z,11.20
2019-05-13T06:20:53.344Z,11.30
2019-05-13T06:23:22.648Z,11.50
2019-05-13T06:25:52.830Z,11.50
2019-05-13T06:28:22.545Z,11.60
2019-05-13T06:30:52.138Z,11.70
2019-05-13T06:33:21.499Z,11.90
2019-05-13T06:35:52.161Z,12.10
2019-05-13T06:38:22.476Z,12.10
2019-05-13T06:41:00.394Z,12.20
2019-05-13T06:43:22.950Z,12.10
2019-05-13T06:45:52.534Z,12.30
2019-05-13T06:48:23.147Z,12.40
2019-05-13T06:50:52.589Z,12.60
2019-05-13T06:53:22.172Z,12.70
2019-05-13T06:55:52.264Z,12.80
2019-05-13T06:58:22.430Z,12.80
2019-05-13T07:00:51.811Z,12.90
2019-05-13T07:03:21.965Z,12.90
2019-05-13T07:05:52.549Z,13.10
2019-05-13T07:08:22.309Z,13.30
2019-05-13T07:10:51.715Z,13.30
2019-05-13T07:13:21.827Z,13.40
2019-05-13T07:15:52.182Z,13.40
2019-05-13T07:18:21.960Z,13.60
2019-05-13T07:20:53.040Z,13.70
2019-05-13T07:23:22.593Z,13.70
2019-05-13T07:25:52.647Z,13.90
2019-05-13T07:28:22.100Z,14.00
2019-05-13T07:30:51.684Z,14.10
2019-05-13T07:33:21.492Z,14.20
2019-05-13T07:35:58.059Z,14.20
2019-05-13T07:38:23.795Z,14.30
2019-05-13T07:41:01.534Z,14.40
2019-05-13T07:43:32.172Z,14.50
2019-05-13T07:46:02.242Z,14.60
2019-05-13T07:48:32.099Z,14.70
2019-05-13T07:51:04.589Z,14.90
2019-05-13T07:53:33.024Z,15.00
2019-05-13T07:56:04.830Z,15.20
2019-05-13T07:58:37.617Z,15.30
2019-05-13T08:01:05.440Z,15.40
2019-05-13T08:03:34.624Z,15.40
2019-05-13T08:06:04.436Z,15.40
2019-05-13T08:08:33.667Z,15.40
2019-05-13T08:11:02.804Z,15.50
2019-05-13T08:13:32.326Z,15.70
2019-05-13T08:16:02.084Z,15.80
2019-05-13T08:18:32.126Z,15.90
2019-05-13T08:21:02.365Z,16.00
2019-05-13T08:23:32.542Z,16.10
2019-05-13T08:26:02.515Z,16.10
2019-05-13T08:28:32.503Z,16.10
2019-05-13T08:31:02.470Z,16.40
2019-05-13T08:33:32.325Z,16.70
2019-05-13T08:36:01.913Z,16.70
2019-05-13T08:38:32.124Z,16.90
2019-05-13T08:41:02.013Z,17.20
2019-05-13T08:43:31.812Z,17.40
2019-05-13T08:46:02.411Z,17.60
2019-05-13T08:48:32.398Z,17.60
2019-05-13T08:51:03.123Z,17.70
2019-05-13T08:53:33.079Z,17.60
2019-05-13T08:56:02.721Z,18.00
2019-05-13T08:58:32.255Z,18.20
2019-05-13T09:01:02.453Z,18.20
2019-05-13T09:03:32.916Z,18.60
2019-05-13T09:06:03.160Z,18.30
2019-05-13T09:08:33.057Z,18.50
2019-05-13T09:11:03.163Z,18.70
2019-05-13T09:13:33.153Z,18.70
2019-05-13T09:16:03.050Z,18.70
2019-05-13T09:18:32.552Z,19.00
2019-05-13T09:21:02.744Z,19.10
2019-05-13T09:23:32.050Z,19.30
2019-05-13T09:26:02.617Z,19.50
2019-05-13T09:28:32.582Z,19.50
2019-05-13T09:31:02.256Z,19.60
2019-05-13T09:33:32.804Z,20.00
2019-05-13T09:36:02.497Z,20.20
2019-05-13T09:38:32.701Z,20.00
2019-05-13T09:41:02.308Z,20.10
2019-05-13T09:43:32.283Z,20.30
2019-05-13T09:46:02.021Z,20.50
2019-05-13T09:48:32.079Z,20.40
2019-05-13T09:51:02.368Z,20.50
2019-05-13T09:53:32.849Z,20.80
2019-05-13T09:56:02.711Z,20.70
2019-05-13T09:58:33.089Z,20.80
2019-05-13T10:01:02.679Z,21.10
2019-05-13T10:03:33.240Z,21.30
2019-05-13T10:06:02.811Z,21.40
2019-05-13T10:08:32.885Z,21.40
2019-05-13T10:11:02.349Z,21.70
2019-05-13T10:13:31.786Z,21.60
2019-05-13T10:16:01.417Z,21.10
2019-05-13T10:18:32.577Z,21.10
2019-05-13T10:21:03.618Z,21.30
2019-05-13T10:23:33.516Z,21.70
2019-05-13T10:26:05.455Z,22.10
2019-05-13T10:28:35.599Z,22.20
2019-05-13T10:31:05.969Z,22.40
2019-05-13T10:33:35.485Z,22.30
2019-05-13T10:36:05.037Z,22.50
2019-05-13T10:38:34.634Z,22.70
2019-05-13T10:41:04.119Z,22.70
2019-05-13T10:43:39.038Z,23.00
2019-05-13T10:46:04.824Z,22.90
2019-05-13T10:48:34.080Z,23.10
2019-05-13T10:51:03.829Z,23.50
2019-05-13T10:53:33.163Z,23.50
2019-05-13T10:56:03.639Z,23.40
2019-05-13T10:58:33.390Z,23.40
2019-05-13T11:01:03.837Z,23.70
2019-05-13T11:03:33.505Z,24.00
2019-05-13T11:06:03.558Z,23.80
2019-05-13T11:08:33.350Z,24.10
2019-05-13T11:11:03.240Z,24.00
2019-05-13T11:13:50.415Z,23.50
2019-05-13T11:16:04.280Z,23.40
2019-05-13T11:18:33.922Z,23.60
2019-05-13T11:21:03.917Z,24.10
2019-05-13T11:23:33.196Z,24.70
2019-05-13T11:26:03.202Z,24.30
2019-05-13T11:28:33.318Z,24.20
2019-05-13T11:31:03.481Z,24.00
2019-05-13T11:33:32.986Z,23.70
2019-05-13T11:36:03.549Z,24.10
2019-05-13T11:38:33.091Z,24.50
2019-05-13T11:41:02.866Z,24.50
2019-05-13T11:43:33.229Z,24.40
2019-05-13T11:46:04.182Z,24.30
2019-05-13T11:48:33.554Z,24.40
2019-05-13T11:51:04.268Z,24.90
2019-05-13T11:53:37.455Z,25.00
2019-05-13T11:56:05.048Z,25.20
2019-05-13T11:58:34.770Z,25.00
2019-05-13T12:01:05.280Z,25.20
2019-05-13T12:03:36.148Z,25.30
2019-05-13T12:06:05.431Z,25.40
2019-05-13T12:08:34.806Z,25.30
2019-05-13T12:13:35.498Z,25.00
2019-05-13T12:16:04.844Z,25.20
2019-05-13T12:18:34.133Z,25.30
2019-05-13T12:21:04.327Z,25.60
2019-05-13T12:23:34.154Z,25.50
2019-05-13T12:26:04.697Z,25.10
2019-05-13T12:28:34.801Z,24.90
2019-05-13T12:31:04.132Z,25.00
2019-05-13T12:33:33.351Z,25.00
2019-05-13T12:36:03.021Z,24.90
2019-05-13T12:38:33.454Z,25.10
2019-05-13T12:41:05.372Z,25.50
2019-05-13T12:43:34.873Z,25.60
2019-05-13T12:46:04.861Z,25.50
2019-05-13T12:48:34.034Z,25.60
2019-05-13T12:51:03.423Z,25.40
2019-05-13T12:53:32.752Z,25.50
2019-05-13T12:56:03.355Z,25.70
2019-05-13T12:58:34.332Z,25.20
2019-05-13T13:01:04.441Z,25.00
2019-05-13T13:03:33.803Z,25.10
2019-05-13T13:06:25.134Z,25.40
2019-05-13T13:08:43.768Z,25.40
2019-05-13T13:11:05.687Z,24.90
2019-05-13T13:13:56.605Z,24.80
2019-05-13T13:16:06.694Z,24.60
2019-05-13T13:18:36.208Z,24.80
2019-05-13T13:21:07.881Z,24.80
2019-05-13T13:23:37.182Z,24.60
2019-05-13T13:26:15.429Z,24.00
2019-05-13T13:28:37.925Z,24.50
2019-05-13T13:31:07.486Z,24.50
2019-05-13T13:33:36.848Z,24.40
2019-05-13T13:36:06.253Z,24.40
2019-05-13T13:38:36.449Z,24.00
2019-05-13T13:41:05.760Z,23.80
2019-05-13T13:43:36.884Z,24.00
2019-05-13T13:46:16.463Z,24.00
2019-05-13T13:48:37.797Z,23.80
2019-05-13T13:51:07.458Z,24.00
2019-05-13T13:53:37.161Z,24.00
2019-05-13T13:56:06.509Z,23.90
2019-05-13T13:58:35.893Z,23.90
2019-05-13T14:01:12.510Z,23.90
2019-05-13T14:03:36.167Z,23.60
2019-05-13T14:06:06.482Z,23.40
2019-05-13T14:07:03.320Z,25.40
2019-05-13T14:08:35.939Z,23.30
2019-05-13T14:11:05.177Z,23.30
2019-05-13T14:13:34.551Z,23.40
2019-05-13T14:16:04.118Z,23.60
2019-05-13T14:18:33.368Z,23.60
2019-05-13T14:21:03.397Z,23.40
2019-05-13T14:23:33.242Z,23.10
2019-05-13T14:26:02.557Z,23.00
2019-05-13T14:28:32.696Z,22.70
2019-05-13T14:31:04.635Z,22.50
2019-05-13T14:33:35.597Z,22.40
2019-05-13T14:36:05.447Z,22.40
2019-05-13T14:38:34.996Z,22.00
2019-05-13T14:41:04.312Z,21.90
2019-05-13T14:43:33.650Z,21.90
2019-05-13T14:46:02.969Z,22.00
2019-05-13T14:48:33.031Z,22.10
2019-05-13T14:51:02.749Z,22.40
2019-05-13T14:53:32.537Z,22.30
2019-05-13T14:56:02.936Z,22.00
2019-05-13T14:58:33.138Z,21.80
2019-05-13T15:01:20.130Z,21.70
2019-05-13T15:03:34.392Z,21.50
2019-05-13T15:06:04.325Z,21.60
2019-05-13T15:08:34.715Z,21.50
2019-05-13T15:11:04.408Z,21.30
2019-05-13T15:13:33.746Z,21.50
2019-05-13T15:16:03.025Z,21.40
2019-05-13T15:18:32.887Z,21.40
2019-05-13T15:21:02.612Z,21.30
2019-05-13T15:23:32.019Z,21.10
2019-05-13T15:26:02.388Z,20.90
2019-05-13T15:28:32.044Z,21.00
2019-05-13T15:31:01.383Z,21.00
2019-05-13T15:33:32.816Z,21.10
2019-05-13T15:36:04.937Z,21.10
2019-05-13T15:38:34.461Z,21.00
2019-05-13T15:41:03.759Z,20.70
2019-05-13T15:43:34.475Z,20.70
2019-05-13T15:46:03.701Z,20.70
2019-05-13T15:48:36.543Z,20.70
2019-05-13T15:51:05.859Z,20.70
2019-05-13T15:53:35.095Z,20.30
2019-05-13T15:56:04.278Z,20.20
2019-05-13T15:58:39.207Z,20.10
2019-05-13T16:01:04.429Z,20.20
2019-05-13T16:03:35.502Z,20.20
2019-05-13T16:06:04.803Z,20.20
2019-05-13T16:08:34.812Z,20.20
2019-05-13T16:11:04.500Z,20.10
2019-05-13T16:13:33.803Z,19.90
2019-05-13T16:16:03.919Z,19.70
2019-05-13T16:18:33.807Z,19.50
2019-05-13T16:21:03.155Z,19.30
2019-05-13T16:23:32.760Z,19.10
2019-05-13T16:26:02.613Z,19.00
2019-05-13T16:28:32.883Z,18.90
2019-05-13T16:31:02.820Z,18.70
2019-05-13T16:33:32.162Z,18.50
2019-05-13T16:36:02.648Z,18.40
2019-05-13T16:38:33.064Z,18.20
2019-05-13T16:41:02.680Z,18.10
2019-05-13T16:43:32.227Z,17.90
2019-05-13T16:46:01.801Z,17.90
2019-05-13T16:48:32.362Z,17.80
2019-05-13T16:51:02.355Z,17.50
2019-05-13T16:53:31.785Z,17.30
2019-05-13T16:56:01.887Z,17.30
2019-05-13T16:58:32.392Z,17.30
2019-05-13T17:01:02.625Z,17.20
2019-05-13T17:03:32.148Z,17.00
2019-05-13T17:06:02.304Z,17.10
2019-05-13T17:08:32.113Z,17.00
2019-05-13T17:11:02.466Z,16.90
2019-05-13T17:13:32.672Z,16.90
2019-05-13T17:16:02.016Z,16.90
2019-05-13T17:18:32.572Z,16.80
2019-05-13T17:21:02.196Z,16.70
2019-05-13T17:23:31.794Z,16.70
2019-05-13T17:26:02.613Z,16.70
2019-05-13T17:28:34.236Z,16.70
2019-05-13T17:31:03.758Z,16.60
2019-05-13T17:33:33.065Z,16.50
2019-05-13T17:36:02.814Z,16.50
2019-05-13T17:38:32.570Z,16.40
2019-05-13T17:41:02.616Z,16.40
2019-05-13T17:43:32.277Z,16.50
2019-05-13T17:46:02.247Z,16.50
2019-05-13T17:48:33.075Z,16.50
2019-05-13T17:51:02.491Z,16.50
2019-05-13T17:53:32.698Z,16.40
2019-05-13T17:56:02.558Z,16.30
2019-05-13T17:58:32.299Z,16.30
2019-05-13T18:01:01.972Z,16.40
2019-05-13T18:03:32.334Z,16.30
2019-05-13T18:06:02.419Z,16.20
2019-05-13T18:08:32.552Z,16.10
2019-05-13T18:11:04.638Z,16.00
2019-05-13T18:13:33.817Z,16.00
2019-05-13T18:16:03.509Z,15.90
2019-05-13T18:18:42.644Z,15.90
2019-05-13T18:21:04.612Z,15.80
2019-05-13T18:23:34.104Z,15.70
2019-05-13T18:26:03.390Z,15.70
2019-05-13T18:28:34.146Z,15.70
2019-05-13T18:31:03.982Z,15.70
2019-05-13T18:33:33.954Z,15.60
2019-05-13T18:36:03.202Z,15.40
2019-05-13T18:38:33.226Z,15.30
2019-05-13T18:41:03.342Z,15.20
2019-05-13T18:43:32.736Z,15.20
2019-05-13T18:46:02.350Z,15.00
2019-05-13T18:48:32.530Z,15.00
2019-05-13T18:51:01.792Z,14.90
2019-05-13T18:53:32.059Z,14.80
2019-05-13T18:56:02.145Z,14.70
2019-05-13T18:58:31.969Z,14.70
2019-05-13T19:01:01.470Z,14.60
2019-05-13T19:03:32.405Z,14.60
2019-05-13T19:06:02.136Z,14.50
2019-05-13T19:08:32.121Z,14.40
2019-05-13T19:11:02.274Z,14.40
2019-05-13T19:13:32.339Z,14.40
2019-05-13T19:16:02.493Z,14.30
2019-05-13T19:18:32.287Z,14.20
2019-05-13T19:21:01.896Z,14.20
2019-05-13T19:23:31.686Z,14.20
2019-05-13T19:26:01.933Z,14.10
2019-05-13T19:28:32.014Z,14.00
2019-05-13T19:31:02.206Z,13.80
2019-05-13T19:33:31.744Z,13.70
2019-05-13T19:36:01.609Z,13.60
2019-05-13T19:38:31.999Z,13.60
2019-05-13T19:41:01.970Z,13.50
2019-05-13T19:43:31.606Z,13.40
2019-05-13T19:46:01.818Z,13.40
2019-05-13T19:48:32.691Z,13.30
2019-05-13T19:51:02.445Z,13.30
2019-05-13T19:53:32.054Z,13.20
2019-05-13T19:56:21.435Z,13.10
2019-05-13T19:58:50.877Z,13.10
2019-05-13T20:01:21.692Z,13.00
2019-05-13T20:03:51.577Z,13.00
2019-05-13T20:06:21.446Z,13.00
2019-05-13T20:08:51.829Z,12.90
2019-05-13T20:11:21.817Z,12.90
2019-05-13T20:13:52.115Z,12.80
2019-05-13T20:16:22.207Z,12.80
2019-05-13T20:18:51.837Z,12.70
2019-05-13T20:21:21.617Z,12.70
2019-05-13T20:23:51.888Z,12.70
2019-05-13T20:26:21.904Z,12.70
2019-05-13T20:28:51.358Z,12.60
2019-05-13T20:31:21.697Z,12.60
2019-05-13T20:33:51.673Z,12.50
2019-05-13T20:36:22.194Z,12.40
2019-05-13T20:38:51.944Z,12.40
2019-05-13T20:41:22.396Z,12.30
2019-05-13T20:43:52.224Z,12.30
2019-05-13T20:46:23.151Z,12.30
2019-05-13T20:48:52.727Z,12.30
2019-05-13T20:51:22.112Z,12.20
2019-05-13T20:53:51.942Z,12.10
2019-05-13T20:56:21.538Z,12.20
2019-05-13T20:58:51.810Z,12.10
2019-05-13T21:01:21.206Z,12.10
2019-05-13T21:03:51.563Z,12.10
2019-05-13T21:06:22.131Z,12.10
2019-05-13T21:08:52.278Z,12.10
2019-05-13T21:11:22.044Z,12.10
2019-05-13T21:13:51.807Z,12.10
2019-05-13T21:16:21.856Z,12.10
2019-05-13T21:18:51.616Z,12.00
2019-05-13T21:21:22.196Z,12.00
2019-05-13T21:23:52.283Z,12.00
2019-05-13T21:26:22.527Z,11.90
2019-05-13T21:28:52.259Z,11.90
2019-05-13T21:31:21.676Z,11.90
2019-05-13T21:33:51.437Z,11.80
2019-05-13T21:36:21.595Z,11.80
2019-05-13T21:38:51.200Z,11.80
2019-05-13T21:41:21.167Z,11.80
2019-05-13T21:43:52.072Z,11.80
2019-05-13T21:46:21.516Z,11.80
2019-05-13T21:48:52.069Z,11.80
2019-05-13T21:51:22.198Z,11.70
2019-05-13T21:53:52.093Z,11.70
2019-05-13T21:56:23.223Z,11.70
2019-05-13T21:58:52.567Z,11.70
2019-05-13T22:01:23.470Z,11.70
2019-05-13T22:03:53.106Z,11.60
2019-05-13T22:06:22.268Z,11.60
2019-05-13T22:08:51.961Z,11.60
2019-05-13T22:11:22.179Z,11.60
2019-05-13T22:13:51.609Z,11.60
2019-05-13T22:16:21.449Z,11.60
2019-05-13T22:18:52.423Z,11.50
2019-05-13T22:21:22.101Z,11.50
2019-05-13T22:23:51.918Z,11.50
2019-05-13T22:26:22.222Z,11.40
2019-05-13T22:28:52.054Z,11.40
2019-05-13T22:31:22.317Z,11.40
2019-05-13T22:33:51.937Z,11.40
2019-05-13T22:36:21.415Z,11.30
2019-05-13T22:38:51.696Z,11.30
2019-05-13T22:41:22.237Z,11.30
2019-05-13T22:43:58.203Z,11.30
2019-05-13T22:46:23.027Z,11.30
2019-05-13T22:48:52.589Z,11.20
2019-05-13T22:51:22.163Z,11.20
2019-05-13T22:53:51.775Z,11.20
2019-05-13T22:56:22.271Z,11.20
2019-05-13T22:58:51.745Z,11.20
2019-05-13T23:01:21.815Z,11.20
2019-05-13T23:03:52.067Z,11.20
2019-05-13T23:06:21.618Z,11.20
2019-05-13T23:08:50.980Z,11.20
2019-05-13T23:11:21.881Z,11.20
2019-05-13T23:13:51.389Z,11.30
2019-05-13T23:16:22.248Z,11.30
2019-05-13T23:18:51.690Z,11.30
2019-05-13T23:21:21.558Z,11.30
2019-05-13T23:23:51.474Z,11.30
2019-05-13T23:26:21.151Z,11.20
2019-05-13T23:28:52.169Z,11.20
2019-05-13T23:31:21.518Z,11.20
2019-05-13T23:33:50.896Z,11.20
2019-05-13T23:36:21.090Z,11.10
2019-05-13T23:38:51.666Z,11.10
2019-05-13T23:41:21.777Z,11.10
2019-05-13T23:43:51.235Z,11.10
2019-05-13T23:46:22.258Z,11.10
2019-05-13T23:48:52.223Z,11.00
2019-05-13T23:51:21.693Z,11.00
2019-05-13T23:53:51.144Z,11.00
2019-05-13T23:56:21.797Z,11.00
2019-05-13T23:58:51.910Z,11.00
